sensor_id;sensor_type;location;lat;lon;timestamp;P1;durP1;ratioP1;P2;durP2;ratioP2
16543;SDS011;8384;47.996;7.786;2023-06-24T00:01:19;5.23;;;4.83;;
16543;SDS011;8384;47.996;7.786;2023-06-24T00:03:44;4.70;;;4.40;;
16543;SDS011;8384;47.996;7.786;2023-06-24T00:06:12;5.07;;;4.67;;
16543;SDS011;8384;47.996;7.786;2023-06-24T00:08:43;5.20;;;4.80;;
16543;SDS011;8384;47.996;7.786;2023-06-24T00:11:10;5.13;;;4.72;;
16543;SDS011;8384;47.996;7.786;2023-06-24T00:13:35;5.25;;;4.85;;
16543;SDS011;8384;47.996;7.786;2023-06-24T00:16:00;5.57;;;5.17;;
16543;SDS011;8384;47.996;7.786;2023-06-24T00:18:25;6.00;;;5.50;;
16543;SDS011;8384;47.996;7.786;2023-06-24T00:20:54;5.28;;;4.88;;
16543;SDS011;8384;47.996;7.786;2023-06-24T00:23:21;5.00;;;4.60;;
16543;SDS011;8384;47.996;7.786;2023-06-24T00:25:51;5.53;;;5.03;;
16543;SDS011;8384;47.996;7.786;2023-06-24T00:28:17;4.97;;;4.57;;
16543;SDS011;8384;47.996;7.786;2023-06-24T00:30:42;4.47;;;4.17;;
16543;SDS011;8384;47.996;7.786;2023-06-24T00:33:07;4.90;;;4.53;;
16543;SDS011;8384;47.996;7.786;2023-06-24T00:35:36;5.20;;;4.80;;
16543;SDS011;8384;47.996;7.786;2023-06-24T00:38:02;5.43;;;5.03;;
16543;SDS011;8384;47.996;7.786;2023-06-24T00:40:28;5.33;;;5.00;;
16543;SDS011;8384;47.996;7.786;2023-06-24T00:42:53;5.43;;;5.03;;
16543;SDS011;8384;47.996;7.786;2023-06-24T00:45:19;5.53;;;5.03;;
16543;SDS011;8384;47.996;7.786;2023-06-24T00:47:45;5.17;;;4.87;;
16543;SDS011;8384;47.996;7.786;2023-06-24T00:50:10;5.40;;;5.00;;
16543;SDS011;8384;47.996;7.786;2023-06-24T00:52:38;5.47;;;5.07;;
16543;SDS011;8384;47.996;7.786;2023-06-24T00:55:07;5.65;;;5.25;;
16543;SDS011;8384;47.996;7.786;2023-06-24T00:57:33;5.45;;;5.00;;
16543;SDS011;8384;47.996;7.786;2023-06-24T00:59:59;5.20;;;4.80;;
16543;SDS011;8384;47.996;7.786;2023-06-24T01:02:24;5.30;;;4.90;;
16543;SDS011;8384;47.996;7.786;2023-06-24T01:04:52;5.40;;;4.97;;
16543;SDS011;8384;47.996;7.786;2023-06-24T01:07:18;5.30;;;4.90;;
16543;SDS011;8384;47.996;7.786;2023-06-24T01:09:44;5.47;;;5.07;;
16543;SDS011;8384;47.996;7.786;2023-06-24T01:12:10;5.73;;;5.30;;
16543;SDS011;8384;47.996;7.786;2023-06-24T01:14:35;5.40;;;5.00;;
16543;SDS011;8384;47.996;7.786;2023-06-24T01:19:44;6.30;;;5.33;;
16543;SDS011;8384;47.996;7.786;2023-06-24T01:22:33;5.07;;;4.70;;
16543;SDS011;8384;47.996;7.786;2023-06-24T01:33:36;5.10;;;4.60;;
16543;SDS011;8384;47.996;7.786;2023-06-24T01:36:09;5.40;;;5.00;;
16543;SDS011;8384;47.996;7.786;2023-06-24T01:38:43;5.10;;;4.60;;
16543;SDS011;8384;47.996;7.786;2023-06-24T01:41:13;5.83;;;5.33;;
16543;SDS011;8384;47.996;7.786;2023-06-24T01:43:43;5.00;;;4.60;;
16543;SDS011;8384;47.996;7.786;2023-06-24T01:46:10;5.97;;;5.17;;
16543;SDS011;8384;47.996;7.786;2023-06-24T01:48:37;5.57;;;5.00;;
16543;SDS011;8384;47.996;7.786;2023-06-24T01:53:39;5.33;;;4.93;;
16543;SDS011;8384;47.996;7.786;2023-06-24T01:56:08;5.90;;;5.30;;
16543;SDS011;8384;47.996;7.786;2023-06-24T01:58:37;5.20;;;4.80;;
16543;SDS011;8384;47.996;7.786;2023-06-24T02:01:05;5.67;;;5.17;;
16543;SDS011;8384;47.996;7.786;2023-06-24T02:03:33;5.70;;;5.20;;
16543;SDS011;8384;47.996;7.786;2023-06-24T02:06:00;5.90;;;5.40;;
16543;SDS011;8384;47.996;7.786;2023-06-24T02:08:31;5.43;;;5.00;;
16543;SDS011;8384;47.996;7.786;2023-06-24T02:10:59;5.60;;;5.20;;
16543;SDS011;8384;47.996;7.786;2023-06-24T02:13:26;5.55;;;5.15;;
16543;SDS011;8384;47.996;7.786;2023-06-24T02:15:53;5.97;;;5.47;;
16543;SDS011;8384;47.996;7.786;2023-06-24T02:18:20;5.57;;;5.18;;
16543;SDS011;8384;47.996;7.786;2023-06-24T02:20:48;6.15;;;5.70;;
16543;SDS011;8384;47.996;7.786;2023-06-24T02:23:15;6.00;;;5.50;;
16543;SDS011;8384;47.996;7.786;2023-06-24T02:25:42;5.88;;;5.47;;
16543;SDS011;8384;47.996;7.786;2023-06-24T02:28:08;6.00;;;5.50;;
16543;SDS011;8384;47.996;7.786;2023-06-24T02:30:34;5.85;;;5.35;;
16543;SDS011;8384;47.996;7.786;2023-06-24T02:33:01;5.65;;;5.18;;
16543;SDS011;8384;47.996;7.786;2023-06-24T02:35:27;5.35;;;4.95;;
16543;SDS011;8384;47.996;7.786;2023-06-24T02:37:52;5.63;;;5.13;;
16543;SDS011;8384;47.996;7.786;2023-06-24T02:40:17;5.83;;;5.23;;
16543;SDS011;8384;47.996;7.786;2023-06-24T02:42:43;5.75;;;5.25;;
16543;SDS011;8384;47.996;7.786;2023-06-24T02:45:08;5.50;;;5.10;;
16543;SDS011;8384;47.996;7.786;2023-06-24T02:47:34;5.50;;;5.10;;
16543;SDS011;8384;47.996;7.786;2023-06-24T02:50:02;5.95;;;5.45;;
16543;SDS011;8384;47.996;7.786;2023-06-24T02:52:28;5.90;;;5.47;;
16543;SDS011;8384;47.996;7.786;2023-06-24T02:54:55;6.00;;;5.50;;
16543;SDS011;8384;47.996;7.786;2023-06-24T02:57:21;5.60;;;5.10;;
16543;SDS011;8384;47.996;7.786;2023-06-24T02:59:48;6.03;;;5.43;;
16543;SDS011;8384;47.996;7.786;2023-06-24T03:02:14;6.03;;;5.53;;
16543;SDS011;8384;47.996;7.786;2023-06-24T03:04:41;5.95;;;5.47;;
16543;SDS011;8384;47.996;7.786;2023-06-24T03:07:07;6.23;;;5.73;;
16543;SDS011;8384;47.996;7.786;2023-06-24T03:09:35;5.75;;;5.35;;
16543;SDS011;8384;47.996;7.786;2023-06-24T03:12:00;5.67;;;5.27;;
16543;SDS011;8384;47.996;7.786;2023-06-24T03:14:26;5.80;;;5.30;;
16543;SDS011;8384;47.996;7.786;2023-06-24T03:16:51;5.60;;;5.10;;
16543;SDS011;8384;47.996;7.786;2023-06-24T03:19:16;5.77;;;5.30;;
16543;SDS011;8384;47.996;7.786;2023-06-24T03:21:42;5.85;;;5.45;;
16543;SDS011;8384;47.996;7.786;2023-06-24T03:24:07;5.57;;;5.17;;
16543;SDS011;8384;47.996;7.786;2023-06-24T03:26:33;5.70;;;5.30;;
16543;SDS011;8384;47.996;7.786;2023-06-24T03:29:00;5.57;;;5.10;;
16543;SDS011;8384;47.996;7.786;2023-06-24T03:31:26;6.00;;;5.50;;
16543;SDS011;8384;47.996;7.786;2023-06-24T03:33:51;5.77;;;5.33;;
16543;SDS011;8384;47.996;7.786;2023-06-24T03:36:16;5.60;;;5.10;;
16543;SDS011;8384;47.996;7.786;2023-06-24T03:38:41;5.53;;;5.13;;
16543;SDS011;8384;47.996;7.786;2023-06-24T03:41:07;5.77;;;5.27;;
16543;SDS011;8384;47.996;7.786;2023-06-24T03:43:32;5.97;;;5.50;;
16543;SDS011;8384;47.996;7.786;2023-06-24T03:45:57;5.80;;;5.30;;
16543;SDS011;8384;47.996;7.786;2023-06-24T03:48:22;5.80;;;5.40;;
16543;SDS011;8384;47.996;7.786;2023-06-24T03:50:48;5.57;;;5.17;;
16543;SDS011;8384;47.996;7.786;2023-06-24T03:53:13;6.17;;;5.67;;
16543;SDS011;8384;47.996;7.786;2023-06-24T03:55:38;5.88;;;5.38;;
16543;SDS011;8384;47.996;7.786;2023-06-24T03:58:03;5.80;;;5.30;;
16543;SDS011;8384;47.996;7.786;2023-06-24T04:00:29;5.97;;;5.47;;
16543;SDS011;8384;47.996;7.786;2023-06-24T04:02:54;5.40;;;5.00;;
16543;SDS011;8384;47.996;7.786;2023-06-24T04:05:20;5.40;;;5.00;;
16543;SDS011;8384;47.996;7.786;2023-06-24T04:07:45;6.10;;;5.50;;
16543;SDS011;8384;47.996;7.786;2023-06-24T04:10:11;5.63;;;5.20;;
16543;SDS011;8384;47.996;7.786;2023-06-24T04:12:37;5.43;;;5.07;;
16543;SDS011;8384;47.996;7.786;2023-06-24T04:15:03;5.80;;;5.40;;
16543;SDS011;8384;47.996;7.786;2023-06-24T04:17:29;5.75;;;5.35;;
16543;SDS011;8384;47.996;7.786;2023-06-24T04:19:55;5.93;;;5.50;;
16543;SDS011;8384;47.996;7.786;2023-06-24T04:22:20;6.07;;;5.57;;
16543;SDS011;8384;47.996;7.786;2023-06-24T04:24:46;5.97;;;5.57;;
16543;SDS011;8384;47.996;7.786;2023-06-24T04:27:11;5.63;;;5.22;;
16543;SDS011;8384;47.996;7.786;2023-06-24T04:29:37;5.83;;;5.40;;
16543;SDS011;8384;47.996;7.786;2023-06-24T04:32:02;5.67;;;5.23;;
16543;SDS011;8384;47.996;7.786;2023-06-24T04:34:28;5.53;;;5.03;;
16543;SDS011;8384;47.996;7.786;2023-06-24T04:36:53;5.93;;;5.43;;
16543;SDS011;8384;47.996;7.786;2023-06-24T04:39:18;6.00;;;5.50;;
16543;SDS011;8384;47.996;7.786;2023-06-24T04:41:43;6.07;;;5.57;;
16543;SDS011;8384;47.996;7.786;2023-06-24T04:44:09;5.67;;;5.20;;
16543;SDS011;8384;47.996;7.786;2023-06-24T04:46:34;5.93;;;5.43;;
16543;SDS011;8384;47.996;7.786;2023-06-24T04:48:59;5.90;;;5.40;;
16543;SDS011;8384;47.996;7.786;2023-06-24T04:51:25;6.23;;;5.73;;
16543;SDS011;8384;47.996;7.786;2023-06-24T04:53:50;6.17;;;5.67;;
16543;SDS011;8384;47.996;7.786;2023-06-24T04:56:16;5.63;;;5.23;;
16543;SDS011;8384;47.996;7.786;2023-06-24T04:58:41;6.20;;;5.70;;
16543;SDS011;8384;47.996;7.786;2023-06-24T05:01:06;6.00;;;5.50;;
16543;SDS011;8384;47.996;7.786;2023-06-24T05:03:31;5.83;;;5.43;;
16543;SDS011;8384;47.996;7.786;2023-06-24T05:05:57;5.60;;;5.10;;
16543;SDS011;8384;47.996;7.786;2023-06-24T05:08:22;5.73;;;5.33;;
16543;SDS011;8384;47.996;7.786;2023-06-24T05:10:47;5.97;;;5.40;;
16543;SDS011;8384;47.996;7.786;2023-06-24T05:13:12;5.97;;;5.50;;
16543;SDS011;8384;47.996;7.786;2023-06-24T05:15:38;5.97;;;5.47;;
16543;SDS011;8384;47.996;7.786;2023-06-24T05:18:03;5.80;;;5.40;;
16543;SDS011;8384;47.996;7.786;2023-06-24T05:20:28;5.35;;;4.93;;
16543;SDS011;8384;47.996;7.786;2023-06-24T05:22:54;6.00;;;5.60;;
16543;SDS011;8384;47.996;7.786;2023-06-24T05:25:19;5.70;;;5.30;;
16543;SDS011;8384;47.996;7.786;2023-06-24T05:27:44;5.77;;;5.27;;
16543;SDS011;8384;47.996;7.786;2023-06-24T05:30:10;5.40;;;5.00;;
16543;SDS011;8384;47.996;7.786;2023-06-24T05:32:35;5.70;;;5.20;;
16543;SDS011;8384;47.996;7.786;2023-06-24T05:35:00;5.47;;;4.97;;
16543;SDS011;8384;47.996;7.786;2023-06-24T05:37:26;5.37;;;4.97;;
16543;SDS011;8384;47.996;7.786;2023-06-24T05:39:51;5.43;;;5.03;;
16543;SDS011;8384;47.996;7.786;2023-06-24T05:42:16;5.17;;;4.77;;
16543;SDS011;8384;47.996;7.786;2023-06-24T05:44:42;5.40;;;5.00;;
16543;SDS011;8384;47.996;7.786;2023-06-24T05:47:07;5.43;;;5.05;;
16543;SDS011;8384;47.996;7.786;2023-06-24T05:49:32;5.27;;;4.93;;
16543;SDS011;8384;47.996;7.786;2023-06-24T05:51:58;5.50;;;5.10;;
16543;SDS011;8384;47.996;7.786;2023-06-24T05:54:23;5.83;;;5.43;;
16543;SDS011;8384;47.996;7.786;2023-06-24T05:56:49;5.77;;;5.27;;
16543;SDS011;8384;47.996;7.786;2023-06-24T05:59:14;6.20;;;5.57;;
16543;SDS011;8384;47.996;7.786;2023-06-24T06:01:40;6.27;;;5.67;;
16543;SDS011;8384;47.996;7.786;2023-06-24T06:04:05;6.00;;;5.50;;
16543;SDS011;8384;47.996;7.786;2023-06-24T06:06:30;6.00;;;5.50;;
16543;SDS011;8384;47.996;7.786;2023-06-24T06:08:56;6.00;;;5.53;;
16543;SDS011;8384;47.996;7.786;2023-06-24T06:11:22;5.82;;;5.43;;
16543;SDS011;8384;47.996;7.786;2023-06-24T06:13:47;6.17;;;5.67;;
16543;SDS011;8384;47.996;7.786;2023-06-24T06:16:13;6.20;;;5.70;;
16543;SDS011;8384;47.996;7.786;2023-06-24T06:18:38;5.90;;;5.50;;
16543;SDS011;8384;47.996;7.786;2023-06-24T06:21:04;6.30;;;5.80;;
16543;SDS011;8384;47.996;7.786;2023-06-24T06:23:29;6.10;;;5.60;;
16543;SDS011;8384;47.996;7.786;2023-06-24T06:25:54;6.30;;;5.80;;
16543;SDS011;8384;47.996;7.786;2023-06-24T06:28:20;5.83;;;5.40;;
16543;SDS011;8384;47.996;7.786;2023-06-24T06:30:45;6.23;;;5.73;;
16543;SDS011;8384;47.996;7.786;2023-06-24T06:33:10;6.00;;;5.50;;
16543;SDS011;8384;47.996;7.786;2023-06-24T06:35:36;6.30;;;5.80;;
16543;SDS011;8384;47.996;7.786;2023-06-24T06:38:01;6.30;;;5.80;;
16543;SDS011;8384;47.996;7.786;2023-06-24T06:40:26;6.60;;;6.00;;
16543;SDS011;8384;47.996;7.786;2023-06-24T06:42:53;7.43;;;5.90;;
16543;SDS011;8384;47.996;7.786;2023-06-24T06:45:19;6.20;;;5.77;;
16543;SDS011;8384;47.996;7.786;2023-06-24T06:47:44;5.97;;;5.57;;
16543;SDS011;8384;47.996;7.786;2023-06-24T06:50:09;6.00;;;5.60;;
16543;SDS011;8384;47.996;7.786;2023-06-24T06:52:35;6.17;;;5.60;;
16543;SDS011;8384;47.996;7.786;2023-06-24T06:55:00;5.90;;;5.50;;
16543;SDS011;8384;47.996;7.786;2023-06-24T06:57:25;5.87;;;5.37;;
16543;SDS011;8384;47.996;7.786;2023-06-24T06:59:51;6.00;;;5.50;;
16543;SDS011;8384;47.996;7.786;2023-06-24T07:02:17;5.90;;;5.25;;
16543;SDS011;8384;47.996;7.786;2023-06-24T07:04:43;5.75;;;5.35;;
16543;SDS011;8384;47.996;7.786;2023-06-24T07:07:08;5.67;;;5.27;;
16543;SDS011;8384;47.996;7.786;2023-06-24T07:09:34;5.40;;;5.00;;
16543;SDS011;8384;47.996;7.786;2023-06-24T07:11:59;5.63;;;5.03;;
16543;SDS011;8384;47.996;7.786;2023-06-24T07:14:24;5.60;;;5.10;;
16543;SDS011;8384;47.996;7.786;2023-06-24T07:16:50;5.35;;;4.88;;
16543;SDS011;8384;47.996;7.786;2023-06-24T07:19:15;6.70;;;5.63;;
16543;SDS011;8384;47.996;7.786;2023-06-24T07:21:40;5.30;;;4.80;;
16543;SDS011;8384;47.996;7.786;2023-06-24T07:24:06;5.23;;;4.83;;
16543;SDS011;8384;47.996;7.786;2023-06-24T07:26:31;5.20;;;4.80;;
16543;SDS011;8384;47.996;7.786;2023-06-24T07:28:56;5.20;;;4.80;;
16543;SDS011;8384;47.996;7.786;2023-06-24T07:31:23;5.33;;;4.97;;
16543;SDS011;8384;47.996;7.786;2023-06-24T07:33:48;5.23;;;4.83;;
16543;SDS011;8384;47.996;7.786;2023-06-24T07:36:13;5.23;;;4.83;;
16543;SDS011;8384;47.996;7.786;2023-06-24T07:38:39;5.20;;;4.70;;
16543;SDS011;8384;47.996;7.786;2023-06-24T07:41:04;5.20;;;4.80;;
16543;SDS011;8384;47.996;7.786;2023-06-24T07:43:29;5.40;;;4.90;;
16543;SDS011;8384;47.996;7.786;2023-06-24T07:45:54;5.00;;;4.60;;
16543;SDS011;8384;47.996;7.786;2023-06-24T07:48:20;5.10;;;4.70;;
16543;SDS011;8384;47.996;7.786;2023-06-24T07:50:46;5.50;;;5.00;;
16543;SDS011;8384;47.996;7.786;2023-06-24T07:53:11;5.63;;;5.13;;
16543;SDS011;8384;47.996;7.786;2023-06-24T07:55:36;5.27;;;4.87;;
16543;SDS011;8384;47.996;7.786;2023-06-24T07:58:01;5.00;;;4.70;;
16543;SDS011;8384;47.996;7.786;2023-06-24T08:00:27;5.05;;;4.65;;
16543;SDS011;8384;47.996;7.786;2023-06-24T08:02:53;5.20;;;4.80;;
16543;SDS011;8384;47.996;7.786;2023-06-24T08:05:20;5.10;;;4.80;;
16543;SDS011;8384;47.996;7.786;2023-06-24T08:07:45;5.10;;;4.70;;
16543;SDS011;8384;47.996;7.786;2023-06-24T08:10:11;5.70;;;5.20;;
16543;SDS011;8384;47.996;7.786;2023-06-24T08:12:36;4.77;;;4.47;;
16543;SDS011;8384;47.996;7.786;2023-06-24T08:15:01;5.13;;;4.83;;
16543;SDS011;8384;47.996;7.786;2023-06-24T08:17:27;5.03;;;4.63;;
16543;SDS011;8384;47.996;7.786;2023-06-24T08:19:52;4.97;;;4.67;;
16543;SDS011;8384;47.996;7.786;2023-06-24T08:22:18;4.77;;;4.43;;
16543;SDS011;8384;47.996;7.786;2023-06-24T08:24:43;4.50;;;4.20;;
16543;SDS011;8384;47.996;7.786;2023-06-24T08:27:08;5.07;;;4.67;;
16543;SDS011;8384;47.996;7.786;2023-06-24T08:29:34;5.10;;;4.80;;
16543;SDS011;8384;47.996;7.786;2023-06-24T08:31:59;4.70;;;4.30;;
16543;SDS011;8384;47.996;7.786;2023-06-24T08:34:24;5.00;;;4.60;;
16543;SDS011;8384;47.996;7.786;2023-06-24T08:36:50;4.93;;;4.40;;
16543;SDS011;8384;47.996;7.786;2023-06-24T08:39:15;5.30;;;4.80;;
16543;SDS011;8384;47.996;7.786;2023-06-24T08:41:40;5.40;;;4.90;;
16543;SDS011;8384;47.996;7.786;2023-06-24T08:44:06;4.60;;;4.30;;
16543;SDS011;8384;47.996;7.786;2023-06-24T08:46:31;5.00;;;4.50;;
16543;SDS011;8384;47.996;7.786;2023-06-24T08:52:11;5.10;;;4.70;;
16543;SDS011;8384;47.996;7.786;2023-06-24T08:54:38;4.90;;;4.53;;
16543;SDS011;8384;47.996;7.786;2023-06-24T08:57:05;6.20;;;4.63;;
16543;SDS011;8384;47.996;7.786;2023-06-24T08:59:36;5.33;;;4.83;;
16543;SDS011;8384;47.996;7.786;2023-06-24T09:02:02;4.67;;;4.27;;
16543;SDS011;8384;47.996;7.786;2023-06-24T09:04:28;4.63;;;4.22;;
16543;SDS011;8384;47.996;7.786;2023-06-24T09:06:53;4.60;;;4.30;;
16543;SDS011;8384;47.996;7.786;2023-06-24T09:09:19;5.23;;;4.40;;
16543;SDS011;8384;47.996;7.786;2023-06-24T09:11:55;4.70;;;4.30;;
16543;SDS011;8384;47.996;7.786;2023-06-24T09:14:22;4.63;;;4.20;;
16543;SDS011;8384;47.996;7.786;2023-06-24T09:19:25;4.90;;;4.27;;
16543;SDS011;8384;47.996;7.786;2023-06-24T09:22:07;4.60;;;4.20;;
16543;SDS011;8384;47.996;7.786;2023-06-24T09:24:34;4.87;;;4.47;;
16543;SDS011;8384;47.996;7.786;2023-06-24T09:27:00;4.50;;;4.10;;
16543;SDS011;8384;47.996;7.786;2023-06-24T09:29:26;4.53;;;4.23;;
16543;SDS011;8384;47.996;7.786;2023-06-24T09:31:52;4.60;;;4.30;;
16543;SDS011;8384;47.996;7.786;2023-06-24T09:34:18;4.53;;;4.13;;
16543;SDS011;8384;47.996;7.786;2023-06-24T09:36:44;4.37;;;4.07;;
16543;SDS011;8384;47.996;7.786;2023-06-24T09:39:15;4.63;;;4.23;;
16543;SDS011;8384;47.996;7.786;2023-06-24T09:41:41;4.90;;;4.50;;
16543;SDS011;8384;47.996;7.786;2023-06-24T09:44:08;4.60;;;4.20;;
16543;SDS011;8384;47.996;7.786;2023-06-24T09:46:35;4.40;;;4.00;;
16543;SDS011;8384;47.996;7.786;2023-06-24T09:49:02;5.27;;;4.00;;
16543;SDS011;8384;47.996;7.786;2023-06-24T09:51:27;4.07;;;3.67;;
16543;SDS011;8384;47.996;7.786;2023-06-24T09:53:52;4.40;;;4.10;;
16543;SDS011;8384;47.996;7.786;2023-06-24T09:56:19;4.63;;;4.33;;
16543;SDS011;8384;47.996;7.786;2023-06-24T09:58:45;5.33;;;4.43;;
16543;SDS011;8384;47.996;7.786;2023-06-24T10:01:11;4.40;;;4.00;;
16543;SDS011;8384;47.996;7.786;2023-06-24T10:03:37;4.50;;;4.10;;
16543;SDS011;8384;47.996;7.786;2023-06-24T10:06:04;4.80;;;4.40;;
16543;SDS011;8384;47.996;7.786;2023-06-24T10:08:31;4.37;;;4.07;;
16543;SDS011;8384;47.996;7.786;2023-06-24T10:10:56;4.30;;;3.90;;
16543;SDS011;8384;47.996;7.786;2023-06-24T10:13:22;4.90;;;4.50;;
16543;SDS011;8384;47.996;7.786;2023-06-24T10:15:48;4.60;;;4.30;;
16543;SDS011;8384;47.996;7.786;2023-06-24T10:18:32;4.37;;;4.07;;
16543;SDS011;8384;47.996;7.786;2023-06-24T10:21:00;4.90;;;4.40;;
16543;SDS011;8384;47.996;7.786;2023-06-24T10:23:32;4.67;;;4.27;;
16543;SDS011;8384;47.996;7.786;2023-06-24T10:25:58;4.93;;;4.30;;
16543;SDS011;8384;47.996;7.786;2023-06-24T10:28:24;4.37;;;4.07;;
16543;SDS011;8384;47.996;7.786;2023-06-24T10:30:56;4.77;;;4.47;;
16543;SDS011;8384;47.996;7.786;2023-06-24T10:33:23;5.63;;;4.40;;
16543;SDS011;8384;47.996;7.786;2023-06-24T10:35:49;4.53;;;4.13;;
16543;SDS011;8384;47.996;7.786;2023-06-24T10:38:15;4.97;;;4.60;;
16543;SDS011;8384;47.996;7.786;2023-06-24T10:40:44;4.63;;;4.23;;
16543;SDS011;8384;47.996;7.786;2023-06-24T10:43:28;5.00;;;4.60;;
16543;SDS011;8384;47.996;7.786;2023-06-24T10:45:57;4.33;;;4.03;;
16543;SDS011;8384;47.996;7.786;2023-06-24T10:48:23;4.20;;;3.90;;
16543;SDS011;8384;47.996;7.786;2023-06-24T10:50:49;4.80;;;4.40;;
16543;SDS011;8384;47.996;7.786;2023-06-24T10:53:14;4.63;;;4.33;;
16543;SDS011;8384;47.996;7.786;2023-06-24T10:55:40;4.40;;;4.00;;
16543;SDS011;8384;47.996;7.786;2023-06-24T10:58:06;4.47;;;4.17;;
16543;SDS011;8384;47.996;7.786;2023-06-24T11:00:33;5.13;;;4.70;;
16543;SDS011;8384;47.996;7.786;2023-06-24T11:03:07;5.00;;;4.40;;
16543;SDS011;8384;47.996;7.786;2023-06-24T11:05:33;4.60;;;4.10;;
16543;SDS011;8384;47.996;7.786;2023-06-24T11:07:58;4.20;;;3.90;;
16543;SDS011;8384;47.996;7.786;2023-06-24T11:10:24;4.23;;;3.93;;
16543;SDS011;8384;47.996;7.786;2023-06-24T11:12:50;4.80;;;4.40;;
16543;SDS011;8384;47.996;7.786;2023-06-24T11:15:16;4.68;;;4.28;;
16543;SDS011;8384;47.996;7.786;2023-06-24T11:17:41;4.40;;;4.10;;
16543;SDS011;8384;47.996;7.786;2023-06-24T11:20:08;4.37;;;4.07;;
16543;SDS011;8384;47.996;7.786;2023-06-24T11:22:34;4.90;;;4.47;;
16543;SDS011;8384;47.996;7.786;2023-06-24T11:25:00;4.10;;;3.80;;
16543;SDS011;8384;47.996;7.786;2023-06-24T11:27:25;4.17;;;3.87;;
16543;SDS011;8384;47.996;7.786;2023-06-24T11:29:52;4.07;;;3.77;;
16543;SDS011;8384;47.996;7.786;2023-06-24T11:32:19;4.37;;;4.07;;
16543;SDS011;8384;47.996;7.786;2023-06-24T11:34:44;3.97;;;3.67;;
16543;SDS011;8384;47.996;7.786;2023-06-24T11:37:10;4.23;;;3.93;;
16543;SDS011;8384;47.996;7.786;2023-06-24T11:39:37;4.10;;;3.70;;
16543;SDS011;8384;47.996;7.786;2023-06-24T11:42:02;4.50;;;4.10;;
16543;SDS011;8384;47.996;7.786;2023-06-24T11:44:30;4.00;;;3.70;;
16543;SDS011;8384;47.996;7.786;2023-06-24T11:47:02;3.93;;;3.73;;
16543;SDS011;8384;47.996;7.786;2023-06-24T11:49:29;3.97;;;3.67;;
16543;SDS011;8384;47.996;7.786;2023-06-24T11:51:54;4.07;;;3.77;;
16543;SDS011;8384;47.996;7.786;2023-06-24T11:54:20;4.17;;;3.80;;
16543;SDS011;8384;47.996;7.786;2023-06-24T11:56:49;4.07;;;3.33;;
16543;SDS011;8384;47.996;7.786;2023-06-24T11:59:20;3.60;;;3.30;;
16543;SDS011;8384;47.996;7.786;2023-06-24T12:01:52;3.97;;;3.67;;
16543;SDS011;8384;47.996;7.786;2023-06-24T12:04:18;3.90;;;3.60;;
16543;SDS011;8384;47.996;7.786;2023-06-24T12:06:43;3.70;;;3.40;;
16543;SDS011;8384;47.996;7.786;2023-06-24T12:09:09;3.70;;;3.40;;
16543;SDS011;8384;47.996;7.786;2023-06-24T12:11:35;3.67;;;3.37;;
16543;SDS011;8384;47.996;7.786;2023-06-24T12:14:00;3.87;;;3.33;;
16543;SDS011;8384;47.996;7.786;2023-06-24T12:16:26;4.20;;;3.80;;
16543;SDS011;8384;47.996;7.786;2023-06-24T12:18:51;3.50;;;3.30;;
16543;SDS011;8384;47.996;7.786;2023-06-24T12:21:18;3.90;;;3.60;;
16543;SDS011;8384;47.996;7.786;2023-06-24T12:23:43;3.80;;;3.53;;
16543;SDS011;8384;47.996;7.786;2023-06-24T12:26:09;3.63;;;3.42;;
16543;SDS011;8384;47.996;7.786;2023-06-24T12:28:34;3.40;;;3.20;;
16543;SDS011;8384;47.996;7.786;2023-06-24T12:30:59;3.70;;;3.50;;
16543;SDS011;8384;47.996;7.786;2023-06-24T12:33:25;3.30;;;3.10;;
16543;SDS011;8384;47.996;7.786;2023-06-24T12:35:50;3.43;;;3.20;;
16543;SDS011;8384;47.996;7.786;2023-06-24T12:38:15;3.57;;;3.27;;
16543;SDS011;8384;47.996;7.786;2023-06-24T12:40:41;3.40;;;3.10;;
16543;SDS011;8384;47.996;7.786;2023-06-24T12:43:06;3.20;;;3.00;;
16543;SDS011;8384;47.996;7.786;2023-06-24T12:45:31;3.27;;;3.00;;
16543;SDS011;8384;47.996;7.786;2023-06-24T12:47:57;3.40;;;3.20;;
16543;SDS011;8384;47.996;7.786;2023-06-24T12:50:22;3.27;;;3.07;;
16543;SDS011;8384;47.996;7.786;2023-06-24T12:52:47;3.50;;;3.23;;
16543;SDS011;8384;47.996;7.786;2023-06-24T12:55:12;3.23;;;3.03;;
16543;SDS011;8384;47.996;7.786;2023-06-24T12:57:38;3.53;;;3.30;;
16543;SDS011;8384;47.996;7.786;2023-06-24T13:00:06;3.43;;;3.13;;
16543;SDS011;8384;47.996;7.786;2023-06-24T13:02:33;3.17;;;2.97;;
16543;SDS011;8384;47.996;7.786;2023-06-24T13:04:58;3.17;;;2.97;;
16543;SDS011;8384;47.996;7.786;2023-06-24T13:07:24;8.10;;;3.03;;
16543;SDS011;8384;47.996;7.786;2023-06-24T13:09:49;3.80;;;3.50;;
16543;SDS011;8384;47.996;7.786;2023-06-24T13:12:14;3.50;;;3.20;;
16543;SDS011;8384;47.996;7.786;2023-06-24T13:14:40;3.00;;;2.80;;
16543;SDS011;8384;47.996;7.786;2023-06-24T13:17:05;3.50;;;3.30;;
16543;SDS011;8384;47.996;7.786;2023-06-24T13:19:31;3.47;;;3.10;;
16543;SDS011;8384;47.996;7.786;2023-06-24T13:21:57;3.30;;;3.10;;
16543;SDS011;8384;47.996;7.786;2023-06-24T13:24:23;3.70;;;3.40;;
16543;SDS011;8384;47.996;7.786;2023-06-24T13:26:50;3.57;;;3.37;;
16543;SDS011;8384;47.996;7.786;2023-06-24T13:29:15;3.40;;;3.10;;
16543;SDS011;8384;47.996;7.786;2023-06-24T13:31:41;4.50;;;3.23;;
16543;SDS011;8384;47.996;7.786;2023-06-24T13:34:06;3.60;;;3.30;;
16543;SDS011;8384;47.996;7.786;2023-06-24T13:36:32;2.90;;;2.70;;
16543;SDS011;8384;47.996;7.786;2023-06-24T13:39:06;3.80;;;3.50;;
16543;SDS011;8384;47.996;7.786;2023-06-24T13:41:33;3.80;;;3.50;;
16543;SDS011;8384;47.996;7.786;2023-06-24T13:44:02;3.37;;;3.10;;
16543;SDS011;8384;47.996;7.786;2023-06-24T13:46:28;3.30;;;3.10;;
16543;SDS011;8384;47.996;7.786;2023-06-24T13:48:54;4.00;;;3.00;;
16543;SDS011;8384;47.996;7.786;2023-06-24T13:51:20;3.40;;;3.13;;
16543;SDS011;8384;47.996;7.786;2023-06-24T13:53:47;3.67;;;3.37;;
16543;SDS011;8384;47.996;7.786;2023-06-24T13:56:14;3.40;;;3.10;;
16543;SDS011;8384;47.996;7.786;2023-06-24T13:58:39;3.80;;;3.30;;
16543;SDS011;8384;47.996;7.786;2023-06-24T14:01:04;3.40;;;3.20;;
16543;SDS011;8384;47.996;7.786;2023-06-24T14:03:29;4.10;;;3.10;;
16543;SDS011;8384;47.996;7.786;2023-06-24T14:05:55;3.30;;;3.10;;
16543;SDS011;8384;47.996;7.786;2023-06-24T14:08:21;3.60;;;3.30;;
16543;SDS011;8384;47.996;7.786;2023-06-24T14:10:47;3.03;;;2.83;;
16543;SDS011;8384;47.996;7.786;2023-06-24T14:13:12;3.23;;;2.90;;
16543;SDS011;8384;47.996;7.786;2023-06-24T14:15:37;3.10;;;2.90;;
16543;SDS011;8384;47.996;7.786;2023-06-24T14:18:03;3.03;;;2.83;;
16543;SDS011;8384;47.996;7.786;2023-06-24T14:20:28;3.03;;;2.83;;
16543;SDS011;8384;47.996;7.786;2023-06-24T14:22:53;3.70;;;3.40;;
16543;SDS011;8384;47.996;7.786;2023-06-24T14:25:18;3.30;;;3.00;;
16543;SDS011;8384;47.996;7.786;2023-06-24T14:27:44;3.50;;;3.20;;
16543;SDS011;8384;47.996;7.786;2023-06-24T14:30:09;3.40;;;3.20;;
16543;SDS011;8384;47.996;7.786;2023-06-24T14:32:35;3.90;;;3.37;;
16543;SDS011;8384;47.996;7.786;2023-06-24T14:35:00;3.40;;;3.20;;
16543;SDS011;8384;47.996;7.786;2023-06-24T14:37:25;3.50;;;3.20;;
16543;SDS011;8384;47.996;7.786;2023-06-24T14:39:51;3.50;;;3.30;;
16543;SDS011;8384;47.996;7.786;2023-06-24T14:42:16;2.97;;;2.77;;
16543;SDS011;8384;47.996;7.786;2023-06-24T14:44:41;3.30;;;3.10;;
16543;SDS011;8384;47.996;7.786;2023-06-24T14:47:06;3.27;;;3.07;;
16543;SDS011;8384;47.996;7.786;2023-06-24T14:49:32;3.90;;;3.10;;
16543;SDS011;8384;47.996;7.786;2023-06-24T14:51:57;3.13;;;2.93;;
16543;SDS011;8384;47.996;7.786;2023-06-24T14:54:22;3.20;;;2.87;;
16543;SDS011;8384;47.996;7.786;2023-06-24T14:56:48;3.17;;;2.97;;
16543;SDS011;8384;47.996;7.786;2023-06-24T14:59:13;3.10;;;2.90;;
16543;SDS011;8384;47.996;7.786;2023-06-24T15:01:38;3.20;;;2.90;;
16543;SDS011;8384;47.996;7.786;2023-06-24T15:04:03;3.33;;;3.13;;
16543;SDS011;8384;47.996;7.786;2023-06-24T15:06:29;3.17;;;2.97;;
16543;SDS011;8384;47.996;7.786;2023-06-24T15:08:54;4.43;;;3.00;;
16543;SDS011;8384;47.996;7.786;2023-06-24T15:11:19;3.00;;;2.80;;
16543;SDS011;8384;47.996;7.786;2023-06-24T15:13:45;3.43;;;2.97;;